createdAt,value
2022-07-29T00:01:19.529Z,19.80
2022-07-29T00:04:03.132Z,19.43
2022-07-29T00:06:46.378Z,19.13
2022-07-29T00:09:30.909Z,20.10
2022-07-29T00:12:14.027Z,19.33
2022-07-29T00:14:58.011Z,19.27
2022-07-29T00:17:41.181Z,19.60
2022-07-29T00:20:24.514Z,19.40
2022-07-29T00:23:07.779Z,19.97
2022-07-29T00:25:58.176Z,19.23
2022-07-29T00:28:41.215Z,20.07
2022-07-29T00:31:24.359Z,19.27
2022-07-29T00:34:27.424Z,21.37
2022-07-29T00:37:09.486Z,21.20
2022-07-29T00:39:52.612Z,20.50
2022-07-29T00:42:45.561Z,20.17
2022-07-29T00:45:28.672Z,20.33
2022-07-29T00:48:11.908Z,21.73
2022-07-29T00:50:55.073Z,22.20
2022-07-29T00:53:38.457Z,21.37
2022-07-29T00:56:21.968Z,21.90
2022-07-29T00:59:06.515Z,21.60
2022-07-29T01:01:49.651Z,22.17
2022-07-29T01:04:33.732Z,22.53
2022-07-29T01:07:18.040Z,22.67
2022-07-29T01:10:02.249Z,20.80
2022-07-29T01:12:48.138Z,21.37
2022-07-29T01:15:33.247Z,20.40
2022-07-29T01:18:23.488Z,20.77
2022-07-29T01:21:38.324Z,21.33
2022-07-29T01:24:42.037Z,22.17
2022-07-29T01:27:41.137Z,21.00
2022-07-29T01:30:28.091Z,22.20
2022-07-29T01:33:35.852Z,22.03
2022-07-29T01:36:29.615Z,20.90
2022-07-29T01:39:14.701Z,21.77
2022-07-29T01:42:03.755Z,20.60
2022-07-29T01:44:56.118Z,20.07
2022-07-29T01:47:46.320Z,20.67
2022-07-29T01:50:36.891Z,19.20
2022-07-29T01:53:38.005Z,19.73
2022-07-29T01:56:22.293Z,21.10
2022-07-29T01:59:08.890Z,20.90
2022-07-29T02:01:56.360Z,21.93
2022-07-29T02:04:42.433Z,20.83
2022-07-29T02:07:29.527Z,20.80
2022-07-29T02:10:14.976Z,21.67
2022-07-29T02:13:00.490Z,21.30
2022-07-29T02:15:45.093Z,22.30
2022-07-29T02:18:31.826Z,21.97
2022-07-29T02:21:21.919Z,22.30
2022-07-29T02:24:07.031Z,20.50
2022-07-29T02:26:51.643Z,20.47
2022-07-29T02:29:36.839Z,19.63
2022-07-29T02:32:21.359Z,19.30
2022-07-29T02:35:05.355Z,18.53
2022-07-29T02:38:11.233Z,18.63
2022-07-29T02:40:55.825Z,19.00
2022-07-29T02:43:39.303Z,19.80
2022-07-29T02:46:29.846Z,18.80
2022-07-29T02:49:17.899Z,19.17
2022-07-29T02:52:04.359Z,18.43
2022-07-29T02:54:56.143Z,18.87
2022-07-29T02:57:54.399Z,19.03
2022-07-29T03:00:40.546Z,20.77
2022-07-29T03:03:24.950Z,21.87
2022-07-29T03:06:10.876Z,24.73
2022-07-29T03:09:15.543Z,24.00
2022-07-29T03:12:00.259Z,25.50
2022-07-29T03:14:44.801Z,25.27
2022-07-29T03:17:28.216Z,28.63
2022-07-29T03:20:13.752Z,27.73
2022-07-29T03:22:56.947Z,27.63
2022-07-29T03:25:40.174Z,29.20
2022-07-29T03:28:26.926Z,29.80
2022-07-29T03:31:10.346Z,28.27
2022-07-29T03:33:53.486Z,29.13
2022-07-29T03:36:36.604Z,30.60
2022-07-29T03:39:25.131Z,29.47
2022-07-29T03:42:10.516Z,28.97
2022-07-29T03:44:56.591Z,29.57
2022-07-29T03:47:50.809Z,30.67
2022-07-29T03:50:36.798Z,29.23
2022-07-29T03:53:20.355Z,28.57
2022-07-29T03:56:05.393Z,28.70
2022-07-29T03:58:48.795Z,29.57
2022-07-29T04:01:37.656Z,28.43
2022-07-29T04:04:20.923Z,28.10
2022-07-29T04:07:04.839Z,29.73
2022-07-29T04:09:47.959Z,28.20
2022-07-29T04:12:31.173Z,26.17
2022-07-29T04:15:14.386Z,27.53
2022-07-29T04:17:58.913Z,27.00
2022-07-29T04:20:42.026Z,25.67
2022-07-29T04:23:25.190Z,26.90
2022-07-29T04:26:10.721Z,25.77
2022-07-29T04:28:53.953Z,26.50
2022-07-29T04:31:37.032Z,26.47
2022-07-29T04:34:21.615Z,26.33
2022-07-29T04:37:04.741Z,25.80
2022-07-29T04:39:48.099Z,26.40
2022-07-29T04:42:31.277Z,26.57
2022-07-29T04:45:14.430Z,26.13
2022-07-29T04:47:58.108Z,26.53
2022-07-29T04:50:43.145Z,23.97
2022-07-29T04:53:26.626Z,21.87
2022-07-29T04:56:09.738Z,21.50
2022-07-29T04:58:52.824Z,22.27
2022-07-29T05:01:36.017Z,21.07
2022-07-29T05:04:19.910Z,22.13
2022-07-29T05:07:04.912Z,21.03
2022-07-29T05:09:48.027Z,19.87
2022-07-29T05:12:31.118Z,17.50
2022-07-29T05:15:14.242Z,16.67
2022-07-29T05:17:57.810Z,17.43
2022-07-29T05:20:40.875Z,17.40
2022-07-29T05:23:25.293Z,16.73
2022-07-29T05:26:08.390Z,17.30
2022-07-29T05:28:51.693Z,17.30
2022-07-29T05:31:34.803Z,17.23
2022-07-29T05:34:18.456Z,17.07
2022-07-29T05:37:01.963Z,17.43
2022-07-29T05:39:48.716Z,17.37
2022-07-29T05:42:34.015Z,17.77
2022-07-29T05:45:17.077Z,17.77
2022-07-29T05:48:00.215Z,17.90
2022-07-29T05:50:44.105Z,17.00
2022-07-29T05:53:27.534Z,17.07
2022-07-29T05:56:12.066Z,15.93
2022-07-29T05:58:55.206Z,16.50
2022-07-29T06:01:40.466Z,16.97
2022-07-29T06:04:23.802Z,17.30
2022-07-29T06:07:07.279Z,17.03
2022-07-29T06:09:50.452Z,16.80
2022-07-29T06:12:34.987Z,16.03
2022-07-29T06:15:18.468Z,15.53
2022-07-29T06:18:02.444Z,15.50
2022-07-29T06:20:45.629Z,16.40
2022-07-29T06:23:28.794Z,15.13
2022-07-29T06:26:11.814Z,15.43
2022-07-29T06:28:56.328Z,15.27
2022-07-29T06:31:40.337Z,15.73
2022-07-29T06:34:23.365Z,14.37
2022-07-29T06:37:09.138Z,14.27
2022-07-29T06:40:12.879Z,13.90
2022-07-29T06:42:56.233Z,13.50
2022-07-29T06:45:42.428Z,13.73
2022-07-29T06:48:26.003Z,13.40
2022-07-29T06:51:09.110Z,13.30
2022-07-29T06:54:00.094Z,12.60
2022-07-29T06:56:46.942Z,12.97
2022-07-29T06:59:35.450Z,11.87
2022-07-29T07:02:20.509Z,12.17
2022-07-29T07:05:03.675Z,11.40
2022-07-29T07:07:46.774Z,10.90
2022-07-29T07:10:30.355Z,11.93
2022-07-29T07:13:13.628Z,11.60
2022-07-29T07:15:56.851Z,11.90
2022-07-29T07:18:41.621Z,11.37
2022-07-29T07:21:24.932Z,10.27
2022-07-29T07:24:08.752Z,10.43
2022-07-29T07:26:52.225Z,11.50
2022-07-29T07:29:35.344Z,10.07
2022-07-29T07:32:18.519Z,10.30
2022-07-29T07:35:03.529Z,10.30
2022-07-29T07:37:46.682Z,10.87
2022-07-29T07:40:29.787Z,10.17
2022-07-29T07:43:12.882Z,10.43
2022-07-29T07:45:56.228Z,9.87
2022-07-29T07:48:39.507Z,10.20
2022-07-29T07:51:24.115Z,9.37
2022-07-29T07:54:07.310Z,10.10
2022-07-29T07:56:52.979Z,9.40
2022-07-29T07:59:36.543Z,8.10
2022-07-29T08:02:19.795Z,8.50
2022-07-29T08:05:03.040Z,8.70
2022-07-29T08:07:48.785Z,8.53
2022-07-29T08:10:49.487Z,8.23
2022-07-29T08:13:32.991Z,7.53
2022-07-29T08:16:17.055Z,7.30
2022-07-29T08:19:00.454Z,7.57
2022-07-29T08:21:43.828Z,6.90
2022-07-29T08:24:53.285Z,7.03
2022-07-29T08:27:44.058Z,7.23
2022-07-29T08:30:27.461Z,7.30
2022-07-29T08:33:11.141Z,7.07
2022-07-29T08:35:54.245Z,7.50
2022-07-29T08:38:37.394Z,6.77
2022-07-29T08:41:22.261Z,6.60
2022-07-29T08:44:06.088Z,6.80
2022-07-29T08:46:50.493Z,7.17
2022-07-29T08:49:36.362Z,6.90
2022-07-29T08:52:20.332Z,7.27
2022-07-29T08:55:03.967Z,6.83
2022-07-29T08:57:54.126Z,7.73
2022-07-29T09:00:39.892Z,7.90
2022-07-29T09:03:27.533Z,7.70
2022-07-29T09:06:10.814Z,10.43
2022-07-29T09:08:54.024Z,7.37
2022-07-29T09:11:37.516Z,7.78
2022-07-29T09:14:22.032Z,7.70
2022-07-29T09:17:05.603Z,7.13
2022-07-29T09:19:48.918Z,7.13
2022-07-29T09:22:36.727Z,7.57
2022-07-29T09:25:35.984Z,8.00
2022-07-29T09:28:20.116Z,7.90
2022-07-29T09:31:04.607Z,9.40
2022-07-29T09:33:47.802Z,9.40
2022-07-29T09:36:30.995Z,10.23
2022-07-29T09:39:17.889Z,8.27
2022-07-29T09:42:07.888Z,8.67
2022-07-29T09:44:52.138Z,7.60
2022-07-29T09:47:49.937Z,7.50
2022-07-29T09:50:41.601Z,8.00
2022-07-29T09:53:33.963Z,7.05
2022-07-29T09:56:17.050Z,7.38
2022-07-29T09:59:07.934Z,8.00
2022-07-29T10:01:51.666Z,7.27
2022-07-29T10:04:46.584Z,7.87
2022-07-29T10:07:48.356Z,7.43
2022-07-29T10:10:37.010Z,7.67
2022-07-29T10:13:20.184Z,7.18
2022-07-29T10:16:03.986Z,6.75
2022-07-29T10:18:47.955Z,7.07
2022-07-29T10:21:35.162Z,7.10
2022-07-29T10:24:20.122Z,7.10
2022-07-29T10:27:05.395Z,7.50
2022-07-29T10:29:48.902Z,7.03
2022-07-29T10:32:48.390Z,7.00
2022-07-29T10:35:50.385Z,7.13
2022-07-29T10:38:45.808Z,7.10
2022-07-29T10:41:44.741Z,6.70
2022-07-29T10:44:28.869Z,7.33
2022-07-29T10:47:22.846Z,6.80
2022-07-29T10:50:09.481Z,7.00
2022-07-29T10:52:58.035Z,7.10
2022-07-29T10:55:45.475Z,6.90
2022-07-29T10:58:30.936Z,7.00
2022-07-29T11:01:37.002Z,7.13
2022-07-29T11:04:55.028Z,7.40
2022-07-29T11:07:42.666Z,7.00
2022-07-29T11:10:31.380Z,7.67
2022-07-29T11:13:49.342Z,8.97
2022-07-29T11:17:08.179Z,8.10
2022-07-29T11:19:52.774Z,8.00
2022-07-29T11:22:43.068Z,8.00
2022-07-29T11:25:42.402Z,8.00
2022-07-29T11:28:28.486Z,8.40
2022-07-29T11:31:13.357Z,8.00
2022-07-29T11:33:57.049Z,9.17
2022-07-29T11:37:33.562Z,8.87
2022-07-29T11:40:25.743Z,8.80
2022-07-29T11:43:08.968Z,9.33
2022-07-29T11:45:53.591Z,9.50
2022-07-29T11:48:37.842Z,9.30
2022-07-29T11:51:21.403Z,10.60
2022-07-29T11:57:35.976Z,9.77
2022-07-29T12:00:33.222Z,14.17
2022-07-29T12:03:33.581Z,9.30
2022-07-29T12:06:21.977Z,9.80
2022-07-29T12:07:02.299Z,9.27
2022-07-29T12:09:14.345Z,10.57
2022-07-29T12:12:04.918Z,11.33
2022-07-29T12:14:48.718Z,11.00
2022-07-29T12:17:33.515Z,10.73
2022-07-29T12:20:26.930Z,10.97
2022-07-29T12:23:12.901Z,10.83
2022-07-29T12:25:56.630Z,11.17
2022-07-29T12:28:40.410Z,11.03
2022-07-29T12:31:42.303Z,10.97
2022-07-29T12:34:30.727Z,9.93
2022-07-29T12:37:15.568Z,10.03
2022-07-29T12:39:59.662Z,9.97
2022-07-29T12:42:43.108Z,11.73
2022-07-29T12:45:31.868Z,9.90
2022-07-29T12:48:15.689Z,9.43
2022-07-29T12:51:00.962Z,10.73
2022-07-29T12:54:05.470Z,9.60
2022-07-29T12:56:48.739Z,10.17
2022-07-29T12:59:31.932Z,10.07
2022-07-29T13:02:23.681Z,10.80
2022-07-29T13:05:09.335Z,9.93
2022-07-29T13:07:55.166Z,9.90
2022-07-29T13:10:42.691Z,9.87
2022-07-29T13:13:25.791Z,9.50
2022-07-29T13:16:10.272Z,9.37
2022-07-29T13:19:06.444Z,10.40
2022-07-29T13:21:49.638Z,9.90
2022-07-29T13:24:32.766Z,10.10
2022-07-29T13:27:18.263Z,9.70
2022-07-29T13:30:03.340Z,9.40
2022-07-29T13:32:47.113Z,10.07
2022-07-29T13:35:30.778Z,10.10
2022-07-29T13:38:13.811Z,10.20
2022-07-29T13:40:56.971Z,10.23
2022-07-29T13:43:41.497Z,9.70
2022-07-29T13:46:24.681Z,10.77
2022-07-29T13:49:07.916Z,15.27
2022-07-29T13:51:51.788Z,11.90
2022-07-29T13:54:42.170Z,11.07
2022-07-29T13:57:26.299Z,11.27
2022-07-29T14:00:12.251Z,10.67
2022-07-29T14:02:55.411Z,11.37
2022-07-29T14:05:38.489Z,10.70
2022-07-29T14:08:21.654Z,11.00
2022-07-29T14:11:04.820Z,11.00
2022-07-29T14:13:50.319Z,10.67
2022-07-29T14:16:38.037Z,10.40
2022-07-29T14:19:23.683Z,11.50
2022-07-29T14:22:08.623Z,10.80
2022-07-29T14:24:52.046Z,10.90
2022-07-29T14:27:38.257Z,11.20
2022-07-29T14:30:22.338Z,22.53
2022-07-29T14:33:06.994Z,11.10
2022-07-29T14:35:50.153Z,11.70
2022-07-29T14:38:33.318Z,11.33
2022-07-29T14:41:16.433Z,11.73
2022-07-29T14:44:01.595Z,10.70
2022-07-29T14:46:44.777Z,11.53
2022-07-29T14:49:33.184Z,11.73
2022-07-29T14:52:16.339Z,11.27
2022-07-29T14:54:59.573Z,11.57
2022-07-29T14:57:42.695Z,12.73
2022-07-29T15:00:25.899Z,11.23
2022-07-29T15:03:11.336Z,11.50
2022-07-29T15:05:56.195Z,11.50
2022-07-29T15:08:39.294Z,10.40
2022-07-29T15:11:22.823Z,10.83
2022-07-29T15:14:06.012Z,10.70
2022-07-29T15:16:49.235Z,11.40
2022-07-29T15:19:36.391Z,12.63
2022-07-29T15:22:20.929Z,10.67
2022-07-29T15:25:04.066Z,10.10
2022-07-29T15:27:52.086Z,10.40
2022-07-29T15:30:41.801Z,10.10
2022-07-29T15:33:25.031Z,10.03
2022-07-29T15:36:08.511Z,10.47
2022-07-29T15:38:54.602Z,10.13
2022-07-29T15:41:37.750Z,10.23
2022-07-29T15:44:21.801Z,10.90
2022-07-29T15:47:05.748Z,10.20
2022-07-29T15:49:50.030Z,9.50
2022-07-29T15:52:33.130Z,16.43
2022-07-29T15:55:17.684Z,10.83
2022-07-29T15:58:00.983Z,10.53
2022-07-29T16:00:44.208Z,10.07
2022-07-29T16:03:27.464Z,9.33
2022-07-29T16:06:10.811Z,9.27
2022-07-29T16:08:55.860Z,9.63
2022-07-29T16:11:40.413Z,9.83
2022-07-29T16:14:23.614Z,9.67
2022-07-29T16:17:14.455Z,9.67
2022-07-29T16:19:58.235Z,9.90
2022-07-29T16:22:41.302Z,10.60
2022-07-29T16:25:43.830Z,9.77
2022-07-29T16:28:29.416Z,10.60
2022-07-29T16:31:13.829Z,10.33
2022-07-29T16:33:57.336Z,10.80
2022-07-29T16:36:42.683Z,10.87
2022-07-29T16:39:29.230Z,11.13
2022-07-29T16:42:25.788Z,11.50
2022-07-29T16:45:18.032Z,11.70
2022-07-29T16:48:05.185Z,11.37
2022-07-29T16:50:49.424Z,11.67
2022-07-29T16:53:32.592Z,12.23
2022-07-29T16:56:15.730Z,12.30
2022-07-29T16:58:59.602Z,10.50
2022-07-29T17:01:44.121Z,11.03
2022-07-29T17:04:27.576Z,11.27
2022-07-29T17:07:10.762Z,11.10
2022-07-29T17:09:55.937Z,10.87
2022-07-29T17:12:41.625Z,10.57
2022-07-29T17:15:25.324Z,11.07
2022-07-29T17:18:12.303Z,11.33
2022-07-29T17:20:56.203Z,10.40
2022-07-29T17:23:39.359Z,10.70
2022-07-29T17:26:22.923Z,11.03
2022-07-29T17:29:06.190Z,10.90
2022-07-29T17:31:49.379Z,11.23
2022-07-29T17:34:34.044Z,10.40
2022-07-29T17:37:17.324Z,10.60
2022-07-29T17:40:00.734Z,10.43
2022-07-29T17:42:43.919Z,11.57
2022-07-29T17:45:27.116Z,10.83
2022-07-29T17:48:30.294Z,18.70
2022-07-29T17:51:15.356Z,11.20
2022-07-29T17:53:58.552Z,10.50
2022-07-29T17:56:41.664Z,10.23
2022-07-29T17:59:24.799Z,10.70
2022-07-29T18:02:08.206Z,10.13
2022-07-29T18:04:51.317Z,10.10
2022-07-29T18:07:35.858Z,10.70
2022-07-29T18:10:18.912Z,10.30
2022-07-29T18:13:02.900Z,10.00
2022-07-29T18:15:47.256Z,9.73
2022-07-29T18:18:30.535Z,11.17
2022-07-29T18:21:14.053Z,10.60
2022-07-29T18:23:58.560Z,11.90
2022-07-29T18:26:41.795Z,10.40
2022-07-29T18:29:25.045Z,10.40
2022-07-29T18:32:08.654Z,10.27
2022-07-29T18:34:51.752Z,10.17
2022-07-29T18:38:01.579Z,11.87
2022-07-29T18:40:42.131Z,10.03
2022-07-29T18:43:25.237Z,10.80
2022-07-29T18:46:08.476Z,12.30
2022-07-29T18:48:51.877Z,10.37
2022-07-29T18:51:35.091Z,9.77
2022-07-29T18:54:18.569Z,10.53
2022-07-29T18:57:54.707Z,9.90
2022-07-29T19:00:07.887Z,15.30
2022-07-29T19:02:51.569Z,10.53
2022-07-29T19:05:34.965Z,10.17
2022-07-29T19:08:18.097Z,9.77
2022-07-29T19:11:01.254Z,10.37
2022-07-29T19:13:45.892Z,9.43
2022-07-29T19:16:29.133Z,10.73
2022-07-29T19:19:12.644Z,11.13
2022-07-29T19:21:56.008Z,12.93
2022-07-29T19:24:39.169Z,11.37
2022-07-29T19:27:22.283Z,11.60
2022-07-29T19:30:09.547Z,10.63
2022-07-29T19:32:52.630Z,10.87
2022-07-29T19:35:35.946Z,10.93
2022-07-29T19:38:19.102Z,12.43
2022-07-29T19:41:02.163Z,24.23
2022-07-29T19:43:50.378Z,15.10
2022-07-29T19:46:36.843Z,11.90
2022-07-29T19:49:20.024Z,11.80
2022-07-29T19:52:03.142Z,10.77
2022-07-29T19:54:46.357Z,11.20
2022-07-29T19:57:29.795Z,11.40
2022-07-29T20:00:25.239Z,12.00
2022-07-29T20:03:10.241Z,10.83
2022-07-29T20:05:53.464Z,10.40
2022-07-29T20:08:36.895Z,10.20
2022-07-29T20:11:20.005Z,10.10
2022-07-29T20:14:05.329Z,9.30
2022-07-29T20:16:48.426Z,11.33
2022-07-29T20:19:33.461Z,11.67
2022-07-29T20:22:21.114Z,11.87
2022-07-29T20:25:05.122Z,11.57
2022-07-29T20:27:52.439Z,11.53
2022-07-29T20:30:35.578Z,11.83
2022-07-29T20:33:21.702Z,12.27
2022-07-29T20:36:07.023Z,12.53
2022-07-29T20:38:50.094Z,11.67
2022-07-29T20:41:34.017Z,11.37
2022-07-29T20:44:18.891Z,11.90
2022-07-29T20:47:03.238Z,12.27
2022-07-29T20:49:46.482Z,11.60
2022-07-29T20:52:31.584Z,11.53
2022-07-29T20:55:14.789Z,12.30
2022-07-29T20:57:57.858Z,11.83
2022-07-29T21:00:41.022Z,11.97
2022-07-29T21:03:24.054Z,11.87
2022-07-29T21:06:09.133Z,12.87
2022-07-29T21:08:55.800Z,11.87
2022-07-29T21:11:44.417Z,11.73
2022-07-29T21:14:47.575Z,11.67
2022-07-29T21:17:34.660Z,12.20
2022-07-29T21:20:19.532Z,12.50
2022-07-29T21:23:02.651Z,12.30
2022-07-29T21:25:47.170Z,12.67
2022-07-29T21:28:35.704Z,12.60
2022-07-29T21:31:18.731Z,12.47
2022-07-29T21:34:01.823Z,12.50
2022-07-29T21:36:48.903Z,13.00
2022-07-29T21:39:32.441Z,14.37
2022-07-29T21:42:16.944Z,12.77
2022-07-29T21:45:00.562Z,13.30
2022-07-29T21:47:43.590Z,13.03
2022-07-29T21:50:26.723Z,13.33
2022-07-29T21:53:11.112Z,12.77
2022-07-29T21:55:56.967Z,13.30
2022-07-29T21:58:41.735Z,12.43
2022-07-29T22:01:25.908Z,13.03
2022-07-29T22:04:09.466Z,12.97
2022-07-29T22:06:52.595Z,12.70
2022-07-29T22:09:35.773Z,13.00
2022-07-29T22:12:18.859Z,13.17
2022-07-29T22:15:03.498Z,12.03
2022-07-29T22:17:47.174Z,12.67
2022-07-29T22:20:30.367Z,11.93
2022-07-29T22:23:13.448Z,12.73
2022-07-29T22:25:56.487Z,12.60
2022-07-29T22:28:39.563Z,13.00
2022-07-29T22:31:25.072Z,12.40
2022-07-29T22:34:12.722Z,14.37
2022-07-29T22:36:55.792Z,13.10
2022-07-29T22:39:39.069Z,12.33
2022-07-29T22:42:22.263Z,11.97
2022-07-29T22:45:05.953Z,12.50
2022-07-29T22:47:57.474Z,10.70
2022-07-29T22:50:42.840Z,10.97
2022-07-29T22:53:25.895Z,11.23
2022-07-29T22:56:09.612Z,11.57
2022-07-29T22:58:53.391Z,10.87
2022-07-29T23:01:37.800Z,11.57
2022-07-29T23:04:23.823Z,11.10
2022-07-29T23:07:07.096Z,12.00
2022-07-29T23:09:50.204Z,10.60
2022-07-29T23:12:33.306Z,10.67
2022-07-29T23:15:16.358Z,10.93
2022-07-29T23:18:01.362Z,10.60
2022-07-29T23:20:46.336Z,10.80
2022-07-29T23:23:32.402Z,10.83
2022-07-29T23:26:17.053Z,11.10
2022-07-29T23:29:00.199Z,10.97
2022-07-29T23:31:48.146Z,10.87
2022-07-29T23:34:31.499Z,11.50
2022-07-29T23:37:16.038Z,11.17
2022-07-29T23:39:59.113Z,11.37
2022-07-29T23:42:43.006Z,10.83
2022-07-29T23:45:33.044Z,10.73
2022-07-29T23:48:28.348Z,11.13
2022-07-29T23:51:11.495Z,11.23
2022-07-29T23:53:56.093Z,11.43
2022-07-29T23:56:39.171Z,11.70
2022-07-29T23:59:22.297Z,11.43
